createdAt,value
2023-05-02T00:00:22.920Z,78.20
2023-05-02T00:02:52.155Z,77.90
2023-05-02T00:05:21.502Z,77.80
2023-05-02T00:07:50.739Z,77.80
2023-05-02T00:10:20.315Z,77.80
2023-05-02T00:12:49.241Z,77.20
2023-05-02T00:15:18.292Z,77.20
2023-05-02T00:17:47.767Z,77.00
2023-05-02T00:20:16.759Z,76.70
2023-05-02T00:22:45.834Z,76.80
2023-05-02T00:25:17.408Z,77.30
2023-05-02T00:27:47.851Z,76.80
2023-05-02T00:30:16.916Z,76.50
2023-05-02T00:32:46.362Z,76.40
2023-05-02T00:35:15.325Z,76.40
2023-05-02T00:37:44.373Z,76.30
2023-05-02T00:40:13.972Z,76.10
2023-05-02T00:42:43.228Z,75.70
2023-05-02T00:45:13.522Z,75.40
2023-05-02T00:47:42.701Z,75.30
2023-05-02T00:50:12.166Z,75.30
2023-05-02T00:52:41.126Z,74.90
2023-05-02T00:55:10.452Z,74.80
2023-05-02T00:57:40.290Z,74.60
2023-05-02T01:00:10.014Z,74.40
2023-05-02T01:03:00.548Z,74.30
2023-05-02T01:05:48.386Z,74.20
2023-05-02T01:08:37.154Z,73.90
2023-05-02T01:11:32.680Z,73.30
2023-05-02T01:14:06.818Z,73.20
2023-05-02T01:16:39.578Z,73.00
2023-05-02T01:19:21.145Z,73.00
2023-05-02T01:21:53.465Z,72.30
2023-05-02T01:24:28.913Z,72.40
2023-05-02T01:27:23.650Z,72.50
2023-05-02T01:29:54.554Z,72.30
2023-05-02T01:32:26.443Z,72.20
2023-05-02T01:34:57.814Z,72.20
2023-05-02T01:37:29.766Z,72.00
2023-05-02T01:40:00.758Z,71.80
2023-05-02T01:42:34.857Z,71.60
2023-05-02T01:45:04.686Z,71.50
2023-05-02T01:47:38.166Z,71.10
2023-05-02T01:50:13.019Z,71.00
2023-05-02T01:52:43.746Z,71.10
2023-05-02T01:55:16.643Z,71.10
2023-05-02T01:57:48.020Z,70.90
2023-05-02T02:00:20.106Z,70.50
2023-05-02T02:02:50.266Z,70.00
2023-05-02T02:05:22.415Z,70.30
2023-05-02T02:07:51.468Z,70.50
2023-05-02T02:10:20.946Z,70.40
2023-05-02T02:13:02.453Z,70.00
2023-05-02T02:15:35.771Z,69.60
2023-05-02T02:18:20.002Z,69.70
2023-05-02T02:20:53.659Z,69.40
2023-05-02T02:23:28.236Z,69.40
2023-05-02T02:26:01.525Z,69.20
2023-05-02T02:28:30.542Z,68.80
2023-05-02T02:30:59.717Z,68.40
2023-05-02T02:33:32.690Z,68.50
2023-05-02T02:36:31.574Z,68.10
2023-05-02T02:39:34.289Z,67.80
2023-05-02T02:42:15.499Z,67.00
2023-05-02T02:44:50.980Z,67.40
2023-05-02T02:47:33.857Z,66.80
2023-05-02T02:50:33.636Z,66.60
2023-05-02T02:53:09.817Z,66.00
2023-05-02T02:56:03.145Z,66.00
2023-05-02T02:58:57.119Z,65.80
2023-05-02T03:01:27.006Z,64.80
2023-05-02T03:03:59.102Z,62.40
2023-05-02T03:06:28.637Z,65.00
2023-05-02T03:08:57.734Z,64.60
2023-05-02T03:11:28.322Z,65.00
2023-05-02T03:13:58.674Z,64.80
2023-05-02T03:16:40.884Z,64.70
2023-05-02T03:19:10.398Z,64.20
2023-05-02T03:21:39.343Z,63.70
2023-05-02T03:24:08.503Z,63.50
2023-05-02T03:26:37.614Z,63.80
2023-05-02T03:29:06.656Z,62.90
2023-05-02T03:31:35.891Z,63.50
2023-05-02T03:34:04.930Z,62.40
2023-05-02T03:36:33.996Z,62.70
2023-05-02T03:39:03.114Z,62.70
2023-05-02T03:41:32.381Z,62.10
2023-05-02T03:44:01.447Z,61.80
2023-05-02T03:46:30.710Z,61.60
2023-05-02T03:49:02.719Z,61.90
2023-05-02T03:51:31.826Z,61.00
2023-05-02T03:54:01.759Z,60.70
2023-05-02T03:56:30.774Z,60.90
2023-05-02T03:58:59.724Z,60.90
2023-05-02T04:01:28.847Z,59.80
2023-05-02T04:03:57.917Z,59.90
2023-05-02T04:06:27.154Z,59.80
2023-05-02T04:08:56.123Z,60.10
2023-05-02T04:11:25.373Z,60.90
2023-05-02T04:13:54.785Z,59.90
2023-05-02T04:16:24.050Z,59.90
2023-05-02T04:18:53.267Z,59.80
2023-05-02T04:21:22.723Z,58.80
2023-05-02T04:23:51.855Z,58.70
2023-05-02T04:26:20.868Z,59.80
2023-05-02T04:28:49.844Z,59.90
2023-05-02T04:31:19.340Z,59.40
2023-05-02T04:33:50.101Z,59.50
2023-05-02T04:36:20.282Z,59.50
2023-05-02T04:38:49.346Z,59.60
2023-05-02T04:41:18.666Z,58.20
2023-05-02T04:43:47.613Z,58.70
2023-05-02T04:46:20.703Z,58.50
2023-05-02T04:48:49.839Z,58.80
2023-05-02T04:51:18.895Z,58.30
2023-05-02T04:53:48.412Z,58.70
2023-05-02T04:56:17.391Z,58.00
2023-05-02T04:58:46.436Z,58.40
2023-05-02T05:01:15.559Z,58.20
2023-05-02T05:03:44.724Z,58.00
2023-05-02T05:06:13.813Z,56.00
2023-05-02T05:08:42.911Z,58.40
2023-05-02T05:11:11.859Z,58.20
2023-05-02T05:13:40.967Z,57.20
2023-05-02T05:16:10.610Z,57.40
2023-05-02T05:18:42.793Z,57.50
2023-05-02T05:21:12.446Z,57.30
2023-05-02T05:23:46.915Z,57.90
2023-05-02T05:26:18.154Z,57.10
2023-05-02T05:28:47.208Z,58.40
2023-05-02T05:31:19.578Z,58.20
2023-05-02T05:33:48.648Z,56.30
2023-05-02T05:36:18.445Z,57.90
2023-05-02T05:38:50.512Z,57.70
2023-05-02T05:41:19.555Z,57.30
2023-05-02T05:43:48.560Z,57.10
2023-05-02T05:46:17.548Z,57.30
2023-05-02T05:48:46.565Z,56.70
2023-05-02T05:51:15.595Z,56.50
2023-05-02T05:53:44.609Z,56.10
2023-05-02T05:56:15.038Z,55.90
2023-05-02T05:58:45.362Z,56.00
2023-05-02T06:01:14.411Z,55.80
2023-05-02T06:03:43.471Z,56.30
2023-05-02T06:06:12.553Z,57.20
2023-05-02T06:08:41.824Z,55.90
2023-05-02T06:11:12.941Z,56.20
2023-05-02T06:13:41.959Z,57.00
2023-05-02T06:16:11.066Z,57.20
2023-05-02T06:18:40.123Z,57.20
2023-05-02T06:21:12.716Z,57.50
2023-05-02T06:23:42.422Z,57.20
2023-05-02T06:26:11.585Z,56.60
2023-05-02T06:28:40.622Z,57.40
2023-05-02T06:31:09.663Z,57.20
2023-05-02T06:33:42.510Z,57.00
2023-05-02T06:36:12.091Z,57.70
2023-05-02T06:38:41.137Z,57.10
2023-05-02T06:41:18.539Z,57.00
2023-05-02T06:43:47.734Z,56.70
2023-05-02T06:46:16.825Z,56.50
2023-05-02T06:48:45.813Z,56.50
2023-05-02T06:51:16.547Z,56.30
2023-05-02T06:53:45.790Z,53.50
2023-05-02T06:56:14.984Z,55.50
2023-05-02T06:58:44.007Z,55.80
2023-05-02T07:01:13.832Z,55.10
2023-05-02T07:03:45.749Z,55.50
2023-05-02T07:06:15.415Z,54.80
2023-05-02T07:08:44.446Z,55.10
2023-05-02T07:11:13.430Z,55.00
2023-05-02T07:13:42.553Z,54.90
2023-05-02T07:16:11.551Z,54.80
2023-05-02T07:18:40.555Z,54.50
2023-05-02T07:21:09.852Z,55.10
2023-05-02T07:23:38.844Z,54.40
2023-05-02T07:26:09.117Z,54.80
2023-05-02T07:28:38.156Z,54.90
2023-05-02T07:31:07.269Z,55.30
2023-05-02T07:33:36.293Z,55.20
2023-05-02T07:36:05.446Z,54.90
2023-05-02T07:38:34.414Z,54.80
2023-05-02T07:41:03.363Z,54.90
2023-05-02T07:43:32.471Z,55.40
2023-05-02T07:46:09.154Z,55.20
2023-05-02T07:48:38.419Z,54.80
2023-05-02T07:51:12.046Z,53.20
2023-05-02T07:53:41.156Z,54.40
2023-05-02T07:56:10.673Z,54.80
2023-05-02T07:58:39.766Z,55.50
2023-05-02T08:01:09.486Z,55.10
2023-05-02T08:03:38.734Z,55.40
2023-05-02T08:06:07.918Z,54.80
2023-05-02T08:08:37.219Z,55.30
2023-05-02T08:11:06.855Z,54.90
2023-05-02T08:13:35.938Z,54.90
2023-05-02T08:16:05.119Z,55.00
2023-05-02T08:18:34.173Z,55.00
2023-05-02T08:21:03.192Z,54.60
2023-05-02T08:23:32.609Z,54.60
2023-05-02T08:26:01.909Z,55.10
2023-05-02T08:28:31.637Z,55.10
2023-05-02T08:31:09.861Z,54.70
2023-05-02T08:33:38.920Z,55.20
2023-05-02T08:36:15.353Z,55.30
2023-05-02T08:38:48.262Z,55.00
2023-05-02T08:41:21.846Z,55.30
2023-05-02T08:43:51.127Z,55.00
2023-05-02T08:46:20.318Z,55.00
2023-05-02T08:48:49.845Z,55.20
2023-05-02T08:54:11.578Z,54.80
2023-05-02T08:56:41.019Z,54.80
2023-05-02T08:59:10.140Z,55.00
2023-05-02T09:01:43.118Z,55.00
2023-05-02T09:04:37.018Z,55.10
2023-05-02T09:07:05.998Z,55.30
2023-05-02T09:09:36.135Z,54.20
2023-05-02T09:12:05.977Z,56.00
2023-05-02T09:14:37.048Z,55.30
2023-05-02T09:17:06.130Z,55.50
2023-05-02T09:19:35.370Z,55.50
2023-05-02T09:22:04.417Z,55.50
2023-05-02T09:24:33.766Z,55.40
2023-05-02T09:27:04.887Z,55.20
2023-05-02T09:29:39.850Z,55.70
2023-05-02T09:32:09.286Z,55.90
2023-05-02T09:34:40.491Z,55.90
2023-05-02T09:37:09.643Z,55.80
2023-05-02T09:39:38.892Z,55.90
2023-05-02T09:42:07.998Z,56.00
2023-05-02T09:44:40.422Z,55.80
2023-05-02T09:47:10.514Z,55.80
2023-05-02T09:49:46.511Z,55.80
2023-05-02T09:52:18.411Z,56.00
2023-05-02T09:54:54.342Z,55.90
2023-05-02T09:57:24.529Z,55.70
2023-05-02T09:59:58.992Z,55.70
2023-05-02T10:02:32.054Z,55.90
2023-05-02T10:05:03.392Z,55.90
2023-05-02T10:07:32.779Z,55.80
2023-05-02T10:10:03.277Z,55.80
2023-05-02T10:12:34.384Z,55.60
2023-05-02T10:15:06.667Z,55.70
2023-05-02T10:17:46.455Z,55.70
2023-05-02T10:20:23.799Z,55.80
2023-05-02T10:22:53.281Z,55.80
2023-05-02T10:25:22.531Z,55.80
2023-05-02T10:27:51.928Z,56.10
2023-05-02T10:30:21.704Z,56.00
2023-05-02T10:32:53.224Z,56.10
2023-05-02T10:35:22.818Z,56.10
2023-05-02T10:37:53.404Z,56.20
2023-05-02T10:40:22.452Z,56.20
2023-05-02T10:42:55.026Z,56.30
2023-05-02T10:45:34.024Z,56.20
2023-05-02T10:48:19.358Z,56.10
2023-05-02T10:50:53.072Z,56.10
2023-05-02T10:53:31.151Z,56.30
2023-05-02T10:56:19.818Z,56.40
2023-05-02T10:58:55.224Z,56.20
2023-05-02T11:01:35.341Z,56.50
2023-05-02T11:04:09.015Z,56.60
2023-05-02T11:06:58.916Z,56.50
2023-05-02T11:09:30.895Z,56.60
2023-05-02T11:12:00.584Z,56.70
2023-05-02T11:14:33.595Z,56.70
2023-05-02T11:17:05.800Z,56.70
2023-05-02T11:19:40.696Z,56.90
2023-05-02T11:22:29.281Z,56.90
2023-05-02T11:24:58.519Z,56.90
2023-05-02T11:27:34.791Z,57.00
2023-05-02T11:30:10.786Z,57.10
2023-05-02T11:32:53.171Z,57.10
2023-05-02T11:35:32.512Z,57.10
2023-05-02T11:38:15.125Z,57.30
2023-05-02T11:40:55.514Z,57.30
2023-05-02T11:43:28.226Z,57.50
2023-05-02T11:46:01.036Z,57.60
2023-05-02T11:48:30.408Z,57.60
2023-05-02T11:51:05.929Z,57.70
2023-05-02T11:53:35.419Z,57.70
2023-05-02T11:56:06.221Z,57.80
2023-05-02T11:58:35.667Z,57.80
2023-05-02T12:01:18.587Z,57.90
2023-05-02T12:03:49.677Z,58.10
2023-05-02T12:06:20.857Z,58.00
2023-05-02T12:08:50.375Z,58.10
2023-05-02T12:11:19.466Z,58.20
2023-05-02T12:13:50.251Z,58.30
2023-05-02T12:16:20.805Z,58.30
2023-05-02T12:18:50.606Z,58.40
2023-05-02T12:21:20.053Z,58.50
2023-05-02T12:23:49.331Z,58.60
2023-05-02T12:26:23.515Z,58.60
2023-05-02T12:28:56.328Z,58.80
2023-05-02T12:31:25.945Z,58.90
2023-05-02T12:33:58.672Z,59.00
2023-05-02T12:36:31.713Z,59.10
2023-05-02T12:39:02.705Z,59.20
2023-05-02T12:41:39.014Z,59.30
2023-05-02T12:44:10.937Z,59.40
2023-05-02T12:46:40.203Z,59.50
2023-05-02T12:49:13.440Z,59.50
2023-05-02T12:51:42.725Z,59.70
2023-05-02T12:54:22.556Z,59.80
2023-05-02T12:56:53.411Z,60.00
2023-05-02T12:59:30.273Z,59.90
2023-05-02T13:02:00.004Z,60.10
2023-05-02T13:04:43.318Z,60.10
2023-05-02T13:07:12.602Z,60.60
2023-05-02T13:09:41.568Z,60.50
2023-05-02T13:12:10.620Z,60.60
2023-05-02T13:14:40.386Z,60.80
2023-05-02T13:17:09.982Z,60.90
2023-05-02T13:19:42.361Z,61.20
2023-05-02T13:22:13.885Z,61.90
2023-05-02T13:24:43.536Z,62.40
2023-05-02T13:27:14.131Z,62.80
2023-05-02T13:29:43.099Z,63.00
2023-05-02T13:32:12.145Z,64.30
2023-05-02T13:34:41.089Z,63.40
2023-05-02T13:37:10.993Z,63.40
2023-05-02T13:39:39.911Z,63.40
2023-05-02T13:42:09.249Z,63.50
2023-05-02T13:44:38.357Z,63.80
2023-05-02T13:47:07.497Z,64.10
2023-05-02T13:49:36.674Z,64.30
2023-05-02T13:52:05.685Z,64.40
2023-05-02T13:54:34.755Z,64.50
2023-05-02T13:57:03.928Z,64.60
2023-05-02T13:59:32.964Z,64.90
2023-05-02T14:02:02.082Z,65.10
2023-05-02T14:04:31.146Z,65.20
2023-05-02T14:07:00.172Z,65.30
2023-05-02T14:09:29.218Z,65.50
2023-05-02T14:11:59.925Z,65.50
2023-05-02T14:14:28.869Z,65.80
2023-05-02T14:16:57.916Z,66.00
2023-05-02T14:19:27.196Z,66.30
2023-05-02T14:21:56.266Z,66.40
2023-05-02T14:24:25.217Z,66.50
2023-05-02T14:26:54.228Z,66.70
2023-05-02T14:29:23.189Z,66.70
2023-05-02T14:31:52.203Z,66.90
2023-05-02T14:34:23.141Z,66.80
2023-05-02T14:36:52.260Z,66.90
2023-05-02T14:39:21.399Z,67.00
2023-05-02T14:41:50.449Z,67.30
2023-05-02T14:44:19.587Z,67.80
2023-05-02T14:46:48.642Z,68.10
2023-05-02T14:49:17.951Z,68.00
2023-05-02T14:51:48.822Z,68.10
2023-05-02T14:54:18.089Z,68.30
2023-05-02T14:56:48.169Z,68.50
2023-05-02T14:59:17.204Z,68.60
2023-05-02T15:01:46.421Z,68.60
2023-05-02T15:04:15.606Z,68.60
2023-05-02T15:06:44.779Z,68.70
2023-05-02T15:09:14.393Z,68.80
2023-05-02T15:11:43.857Z,69.00
2023-05-02T15:14:13.087Z,69.20
2023-05-02T15:16:42.593Z,69.10
2023-05-02T15:19:12.062Z,69.10
2023-05-02T15:21:41.139Z,69.20
2023-05-02T15:24:10.293Z,69.30
2023-05-02T15:26:41.625Z,69.40
2023-05-02T15:29:10.590Z,69.40
2023-05-02T15:31:39.680Z,69.60
2023-05-02T15:34:08.936Z,69.60
2023-05-02T15:36:41.830Z,69.70
2023-05-02T15:39:10.877Z,69.70
2023-05-02T15:41:40.219Z,69.90
2023-05-02T15:44:09.245Z,69.80
2023-05-02T15:46:38.310Z,69.70
2023-05-02T15:49:07.351Z,69.80
2023-05-02T15:51:36.317Z,69.80
2023-05-02T15:54:05.705Z,70.10
2023-05-02T15:56:34.732Z,70.50
2023-05-02T15:59:03.803Z,70.80
2023-05-02T16:01:32.833Z,71.00
2023-05-02T16:04:02.454Z,71.20
2023-05-02T16:06:32.253Z,71.30
2023-05-02T16:09:02.194Z,71.50
2023-05-02T16:11:32.878Z,71.50
2023-05-02T16:14:02.309Z,71.60
2023-05-02T16:16:31.848Z,71.60
2023-05-02T16:19:01.070Z,71.60
2023-05-02T16:21:30.160Z,71.60
2023-05-02T16:23:59.590Z,71.80
2023-05-02T16:26:30.185Z,71.70
2023-05-02T16:28:59.238Z,71.60
2023-05-02T16:31:28.293Z,71.50
2023-05-02T16:33:57.379Z,71.50
2023-05-02T16:36:27.431Z,71.40
2023-05-02T16:38:56.438Z,71.40
2023-05-02T16:41:25.467Z,71.40
2023-05-02T16:43:54.660Z,71.40
2023-05-02T16:46:23.732Z,71.40
2023-05-02T16:48:52.734Z,71.40
2023-05-02T16:51:21.741Z,71.30
2023-05-02T16:53:50.721Z,71.50
2023-05-02T16:56:19.763Z,71.60
2023-05-02T16:58:48.748Z,71.60
2023-05-02T17:01:18.492Z,71.50
2023-05-02T17:03:47.985Z,71.70
2023-05-02T17:06:17.231Z,72.00
2023-05-02T17:08:46.762Z,72.10
2023-05-02T17:11:15.756Z,71.90
2023-05-02T17:13:45.114Z,72.00
2023-05-02T17:16:14.728Z,72.00
2023-05-02T17:18:43.662Z,72.30
2023-05-02T17:21:13.064Z,72.60
2023-05-02T17:23:42.297Z,72.60
2023-05-02T17:26:16.155Z,72.90
2023-05-02T17:28:46.164Z,73.00
2023-05-02T17:31:15.347Z,73.10
2023-05-02T17:33:44.566Z,72.90
2023-05-02T17:36:13.796Z,73.20
2023-05-02T17:38:43.087Z,73.50
2023-05-02T17:41:12.874Z,73.30
2023-05-02T17:43:43.628Z,73.40
2023-05-02T17:46:12.755Z,74.20
2023-05-02T17:48:45.698Z,73.50
2023-05-02T17:51:14.953Z,73.50
2023-05-02T17:53:44.661Z,73.70
2023-05-02T17:56:15.454Z,73.60
2023-05-02T17:58:44.599Z,73.70
2023-05-02T18:01:15.244Z,73.90
2023-05-02T18:03:44.876Z,74.00
2023-05-02T18:06:20.491Z,74.00
2023-05-02T18:08:49.460Z,74.20
2023-05-02T18:11:19.498Z,74.10
2023-05-02T18:13:50.648Z,74.20
2023-05-02T18:16:20.072Z,74.50
2023-05-02T18:18:49.083Z,74.40
2023-05-02T18:21:24.782Z,74.40
2023-05-02T18:23:53.761Z,74.50
2023-05-02T18:26:22.765Z,74.60
2023-05-02T18:28:54.397Z,74.70
2023-05-02T18:31:23.517Z,74.70
2023-05-02T18:33:54.568Z,74.70
2023-05-02T18:36:28.246Z,74.50
2023-05-02T18:38:57.698Z,74.50
2023-05-02T18:41:26.790Z,75.40
2023-05-02T18:43:57.048Z,74.60
2023-05-02T18:46:27.021Z,74.60
2023-05-02T18:48:55.940Z,74.70
2023-05-02T18:51:25.529Z,74.70
2023-05-02T18:53:54.466Z,74.80
2023-05-02T18:56:23.401Z,74.90
2023-05-02T18:58:55.934Z,74.80
2023-05-02T19:01:25.933Z,74.80
2023-05-02T19:03:55.507Z,74.80
2023-05-02T19:06:24.608Z,75.00
2023-05-02T19:08:54.170Z,75.50
2023-05-02T19:11:23.519Z,75.40
2023-05-02T19:13:52.621Z,75.40
2023-05-02T19:16:23.242Z,75.20
2023-05-02T19:18:54.543Z,75.30
2023-05-02T19:21:23.936Z,75.30
2023-05-02T19:23:53.976Z,75.30
2023-05-02T19:26:22.960Z,75.20
2023-05-02T19:28:51.932Z,75.20
2023-05-02T19:31:22.612Z,75.20
2023-05-02T19:33:55.893Z,75.30
2023-05-02T19:36:25.941Z,75.30
2023-05-02T19:38:56.099Z,75.40
2023-05-02T19:41:25.330Z,75.40
2023-05-02T19:43:54.680Z,75.30
2023-05-02T19:46:23.893Z,75.30
2023-05-02T19:48:52.954Z,75.30
2023-05-02T19:51:27.845Z,75.40
2023-05-02T19:53:59.804Z,75.40
2023-05-02T19:56:29.940Z,75.50
2023-05-02T19:58:59.759Z,75.50
2023-05-02T20:01:30.644Z,75.60
2023-05-02T20:03:59.820Z,75.50
2023-05-02T20:06:29.596Z,75.40
2023-05-02T20:08:58.672Z,75.50
2023-05-02T20:11:27.948Z,75.70
2023-05-02T20:13:57.204Z,75.80
2023-05-02T20:16:26.515Z,75.80
2023-05-02T20:18:55.513Z,75.80
2023-05-02T20:21:24.798Z,75.90
2023-05-02T20:23:53.775Z,75.90
2023-05-02T20:26:23.723Z,75.90
2023-05-02T20:28:52.807Z,76.00
2023-05-02T20:31:21.891Z,76.00
2023-05-02T20:33:51.068Z,76.30
2023-05-02T20:36:20.101Z,76.40
2023-05-02T20:38:49.884Z,76.80
2023-05-02T20:41:18.892Z,76.70
2023-05-02T20:43:48.406Z,77.00
2023-05-02T20:46:17.947Z,76.90
2023-05-02T20:48:46.979Z,77.00
2023-05-02T20:51:17.272Z,77.20
2023-05-02T20:53:46.220Z,77.30
2023-05-02T20:56:15.205Z,77.50
2023-05-02T20:58:44.143Z,77.50
2023-05-02T21:01:13.399Z,77.20
2023-05-02T21:03:42.499Z,77.40
2023-05-02T21:06:11.764Z,77.40
2023-05-02T21:08:40.779Z,77.20
2023-05-02T21:11:18.728Z,77.30
2023-05-02T21:13:47.655Z,77.70
2023-05-02T21:16:20.317Z,77.80
2023-05-02T21:18:50.172Z,77.50
2023-05-02T21:21:19.105Z,77.50
2023-05-02T21:23:48.048Z,77.30
2023-05-02T21:26:17.050Z,77.30
2023-05-02T21:28:46.082Z,77.20
2023-05-02T21:31:15.111Z,77.30
2023-05-02T21:33:44.048Z,77.30
2023-05-02T21:36:13.347Z,77.40
2023-05-02T21:38:42.317Z,77.40
2023-05-02T21:41:11.375Z,77.30
2023-05-02T21:43:41.751Z,77.60
2023-05-02T21:46:13.133Z,77.40
2023-05-02T21:48:42.389Z,77.70
2023-05-02T21:51:12.875Z,77.90
2023-05-02T21:53:42.541Z,77.90
2023-05-02T21:56:12.565Z,77.90
2023-05-02T21:58:41.514Z,78.00
2023-05-02T22:01:10.707Z,78.10
2023-05-02T22:03:40.237Z,78.20
2023-05-02T22:06:09.340Z,78.10
2023-05-02T22:08:38.349Z,78.20
2023-05-02T22:11:11.452Z,78.10
2023-05-02T22:13:40.451Z,78.10
2023-05-02T22:16:09.702Z,78.30
2023-05-02T22:18:39.391Z,78.30
2023-05-02T22:21:09.426Z,78.40
2023-05-02T22:23:38.427Z,78.60
2023-05-02T22:26:07.554Z,78.50
2023-05-02T22:28:36.684Z,78.50
2023-05-02T22:31:06.408Z,78.40
2023-05-02T22:33:35.454Z,78.40
2023-05-02T22:36:04.713Z,78.60
2023-05-02T22:38:33.671Z,78.60
2023-05-02T22:41:03.262Z,78.80
2023-05-02T22:43:32.473Z,78.80
2023-05-02T22:46:01.953Z,78.90
2023-05-02T22:48:31.477Z,78.90
2023-05-02T22:51:00.441Z,79.10
2023-05-02T22:53:29.852Z,79.10
2023-05-02T22:55:58.956Z,79.40
2023-05-02T22:58:27.944Z,79.20
2023-05-02T23:00:57.431Z,79.30
2023-05-02T23:03:26.461Z,79.30
2023-05-02T23:05:55.475Z,79.20
2023-05-02T23:08:24.473Z,79.20
2023-05-02T23:10:53.411Z,79.30
2023-05-02T23:13:22.504Z,79.40
2023-05-02T23:15:57.902Z,79.50
2023-05-02T23:18:26.995Z,79.70
2023-05-02T23:20:56.006Z,79.40
2023-05-02T23:23:25.460Z,79.40
2023-05-02T23:25:54.505Z,79.60
2023-05-02T23:28:23.582Z,79.70
2023-05-02T23:30:52.646Z,79.60
2023-05-02T23:33:21.681Z,79.80
2023-05-02T23:35:50.753Z,79.70
2023-05-02T23:38:19.945Z,79.60
2023-05-02T23:40:49.003Z,79.70
2023-05-02T23:43:18.042Z,79.60
2023-05-02T23:45:50.110Z,79.70
2023-05-02T23:48:19.189Z,79.60
2023-05-02T23:50:48.250Z,80.00
2023-05-02T23:53:17.278Z,79.70
2023-05-02T23:55:46.279Z,80.00
2023-05-02T23:58:15.309Z,79.90
